Tiempo atmosférico en la estación meteorológica de Lorca, Murcia (320 m.)



Fecha
DESCASC
Temp. máxima en grados centígrados (hora)
DESCASC
Temp. mínima en grados centígrados (hora)
DESCASC
Temp. media en grados centígrados
DESCASC
Racha de viento máxima en m/sg (hora)
DESCASC
Velocidad máxima media en intervalos de 10 minutos(hora)
DESCASC
Precipitaciones diarias en mm
DESCASC
Precipitaciones de 00:00 a 06:00 en mm
DESCASC
Precipitaciones de 06:00 a 12:00 en mm
DESCASC
Precipitaciones de 12:00 a 18:00 en mm
DESCASC
Precipitaciones de 18:00 a 24:00 en mm
DESCASC
13-01-2021 16.3 (15:10) -0.1 (08:40) 8.1 4.44 (07:20) 2.78 (07:20) 0 0 0 0 0
12-01-2021 13.8 (16:10) -0.8 (08:00) 6.5 4.44 (21:20) 1.94 (15:00) 0 0 0 0 0
11-01-2021 11.4 (14:50) 1 (05:10) 6.2 5.56 (07:40) 2.78 (08:00) 0 0 0 0 0
10-01-2021 9.7 (16:10) 3.1 (21:30) 6.4 6.94 (09:00) 3.06 (09:00) 0 0 0 0 0
09-01-2021 11.4 (15:50) 4.2 (00:00) 7.8 5.56 (14:30) 2.78 (14:40) 2.1 2.1 0 0 0
08-01-2021 6.1 (22:20) 3.2 (00:00) 4.6 7.78 (01:50) 4.17 (19:10) 9 3.4 2.8 1.8 1
07-01-2021 6 (00:10) 2.8 (00:00) 4.4 6.39 (00:20) 3.61 (01:20) 7.7 2.2 3.5 1.2 0.8
06-01-2021 10.6 (15:50) 1.6 (00:00) 6.1 5.56 (13:10) 3.33 (13:30) 1.9 0 0 0 1.9
05-01-2021 11.9 (14:50) 1.1 (00:00) 6.5 5.83 (06:10) 3.61 (06:00) -- 0 0 0 --
04-01-2021 13.4 (15:20) -1.4 (-00:0) 6 7.5 (15:40) 3.89 (15:50) 0 0 0 0 0
03-01-2021 11.9 (16:30) 1.9 (00:00) 6.9 8.61 (13:50) 4.44 (14:10) 0 0 0 0 0
02-01-2021 10.2 (14:30) 0.1 (00:00) 5.1 10.83 (15:10) 6.11 (14:50) 0 0 0 0 0
01-01-2021 11.9 (13:50) 1.9 (00:00) 6.9 13.61 (12:30) 7.22 (12:30) 0.3 0 0 0.3 0
31-12-2020 14.9 (15:20) -1.2 (-00:0) 6.8 5.28 (05:50) 3.33 (05:50) 0 0 0 0 0
30-12-2020 13.9 (15:10) 1.6 (00:00) 7.7 7.78 (12:10) 4.72 (07:50) 0 0 0 0 0
29-12-2020 13.6 (14:10) 4 (00:00) 8.8 12.5 (14:40) 7.22 (12:20) 0 0 0 0 0
28-12-2020 16.3 (13:50) 6 (00:00) 11.1 13.89 (09:50) 6.11 (09:10) 0 0 0 0 0
27-12-2020 14.8 (15:30) -3.4 (-00:0) 5.7 4.72 (17:20) 2.22 (15:20) 0 0 0 0 0
26-12-2020 12.8 (15:50) 0.4 (00:00) 6.6 10.28 (11:10) 5.28 (11:10) 0 0 0 0 0
25-12-2020 15.2 (14:00) 5.5 (00:00) 10.3 11.11 (23:30) 4.72 (16:50) 0 0 0 0 0
24-12-2020 19.2 (15:50) 7.7 (00:00) 13.5 5.56 (09:30) 3.33 (09:30) 0 0 0 0 0
23-12-2020 19.9 (15:00) 4.2 (07:40) 12 4.44 (15:50) 2.22 (15:50) 0 0 0 0 0
22-12-2020 19.3 (15:40) 5.2 (06:30) 12.2 3.89 (17:00) 1.94 (17:10) 0 0 0 0 0
21-12-2020 18.1 (15:20) 4.7 (00:00) 11.4 5.28 (03:00) 2.5 (23:10) 0 0 0 0 0
20-12-2020 19 (14:30) 8.3 (00:00) 13.7 4.44 (11:10) 2.5 (11:20) 0 0 0 0 0
19-12-2020 18.2 (14:50) 3.2 (00:00) 10.7 4.17 (16:30) 2.22 (17:00) 0 0 0 0 0
18-12-2020 18.5 (15:20) 3.6 (00:00) 11 4.44 (16:10) 2.22 (16:10) 0 0 0 0 0

Gráficas

Temp. máximas Temp. mínimas Temp. medias Precipitaciones Rachas de viento máximas Velocidades máximas media en intervalos de 10 minutos

Datos horarios

Fecha y hora oficial Temperatura (ºC) Velocidad del viento (km/h) Dirección del viento Racha (km/h) Dirección de racha Precipitación (mm) Presión (hPa) Tendencia (hPa) Humedad (%)
2021-01-16 23:00:00 4.3 0 Calma 7 Sur 0 -- -- 75
2021-01-16 22:00:00 5 0 Calma 3 Sur 0 -- -- 84
2021-01-16 21:00:00 6.3 0 Calma 8 Sudoeste 0 -- -- 78
2021-01-16 20:00:00 8 5 Sudoeste 8 Sudoeste 0 -- -- 75
2021-01-16 19:00:00 9.4 3 Sudoeste 7 Oeste 0 -- -- 66
2021-01-16 18:00:00 11.6 3 Sur 13 Sur 0 -- -- 55
2021-01-16 17:00:00 14.6 0 Calma 7 Sudoeste 0 -- -- 39
2021-01-16 16:00:00 15.1 2 Sudoeste 13 Sudoeste 0 -- -- 37
2021-01-16 15:00:00 13.8 5 Sudoeste 12 Sudoeste 0 -- -- 38
2021-01-16 14:00:00 14 4 Sudoeste 17 Sudoeste 0 -- -- 40
2021-01-16 13:00:00 13 5 Sudoeste 19 Sudoeste 0 -- -- 42
2021-01-16 12:00:00 11.5 8 Sudoeste 18 Sudoeste 0 -- -- 43
2021-01-16 11:00:00 10.4 4 Sudoeste 23 Sudoeste 0 -- -- 49
2021-01-16 10:00:00 9 12 Sudoeste 23 Oeste 0 -- -- 46
2021-01-16 09:00:00 6.5 8 Sudoeste 17 Sudoeste 0 -- -- 52
2021-01-16 08:00:00 4.4 2 Sudoeste 13 Sudoeste 0 -- -- 54
2021-01-16 07:00:00 4.4 0 Calma 8 Sur 0 -- -- 54
2021-01-16 06:00:00 6.8 4 Sur 12 Sur 0 -- -- 48
2021-01-16 05:00:00 6.5 0 Calma 11 Sur 0 -- -- 49
2021-01-16 04:00:00 8.3 3 Sudoeste 14 Sudoeste 0 -- -- 47
2021-01-16 03:00:00 8.4 5 Sudoeste 15 Sudoeste 0 -- -- 47
2021-01-16 02:00:00 8.9 5 Sudoeste 15 Sudoeste 0 -- -- 48
2021-01-16 01:00:00 6 3 Sudoeste 15 Sudoeste 0 -- -- 58
2021-01-16 00:00:00 8.4 4 Sudoeste 15 Sur 0 -- -- 52
2021-01-15 23:00:00 8.5 5 Sur 15 Sudoeste 0 -- -- 53
2021-01-15 22:00:00 9.5 5 Sur 21 Sudoeste 0 -- -- 53
2021-01-15 21:00:00 10.3 8 Sudoeste 20 Sur 0 -- -- 52
2021-01-15 20:00:00 10.7 4 Sudoeste 14 Sudoeste 0 -- -- 52
2021-01-15 19:00:00 10.7 3 Sudoeste 6 Sudoeste 0 -- -- 61
2021-01-15 18:00:00 14.1 3 Sudoeste 12 Sudoeste 0 -- -- 46
2021-01-15 17:00:00 17.4 0 Calma 6 Sudoeste 0 -- -- 36
2021-01-15 16:00:00 17.4 3 Sudoeste 13 Sudoeste 0 -- -- 36
2021-01-15 15:00:00 17.4 6 Sudoeste 18 Sudoeste 0 -- -- 33
2021-01-15 14:00:00 17.3 6 Sudoeste 17 Sudoeste 0 -- -- 29
2021-01-15 13:00:00 15.9 8 Sudoeste 19 Sudoeste 0 -- -- 33
2021-01-15 12:00:00 13.8 12 Sudoeste 23 Sudoeste 0 -- -- 37
2021-01-15 11:00:00 11.3 11 Sudoeste 23 Sudoeste 0 -- -- 43
2021-01-15 10:00:00 7.5 4 Sur 9 Sudoeste 0 -- -- 53
2021-01-15 09:00:00 6 5 Sudoeste 23 Sudoeste 0 -- -- 54
2021-01-15 08:00:00 6.9 8 Sudoeste 21 Sur 0 -- -- 52
2021-01-15 07:00:00 7.3 10 Sudoeste 20 Sudoeste 0 -- -- 51
2021-01-15 06:00:00 7.9 10 Sudoeste 21 Sudoeste 0 -- -- 48
2021-01-15 05:00:00 8.4 8 Sudoeste 22 Sur 0 -- -- 47
2021-01-15 04:00:00 8.5 12 Sudoeste 26 Oeste 0 -- -- 48
2021-01-15 03:00:00 8.8 14 Sudoeste 24 Sudoeste 0 -- -- 48
2021-01-15 02:00:00 8.2 11 Sudoeste 28 Sur 0 -- -- 52
2021-01-15 01:00:00 4.4 0 Calma 12 Sur 0 -- -- 66
2021-01-15 00:00:00 7.1 8 Sudoeste 13 Sudoeste 0 -- -- 56
2021-01-14 23:00:00 7.5 6 Sudoeste 10 Sudoeste 0 -- -- 55
2021-01-14 22:00:00 8.3 5 Sur 11 Sudoeste 0 -- -- 54
2021-01-14 21:00:00 9.2 3 Sur 15 Sudoeste 0 -- -- 53
2021-01-14 20:00:00 8.9 3 Sur 9 Sudoeste 0 -- -- 59
2021-01-14 19:00:00 9.6 0 Calma 5 Sur 0 -- -- 66
2021-01-14 18:00:00 13.1 2 Sur 8 Sudoeste 0 -- -- 51
2021-01-14 17:00:00 16.2 5 Sur 11 Sudoeste 0 -- -- 39
2021-01-14 16:00:00 17.6 5 Sur 13 Sur 0 -- -- 30
2021-01-14 15:00:00 16.7 5 Sur 12 Sudoeste 0 -- -- 33
2021-01-14 14:00:00 15.3 5 Sudoeste 10 Sudoeste 0 -- -- 35
2021-01-14 13:00:00 13.4 3 Sudoeste 9 Sudoeste 0 -- -- 42
2021-01-14 12:00:00 10.8 5 Sudoeste 9 Sur 0 -- -- 44
2021-01-14 11:00:00 8.3 3 Sudoeste 8 Sudoeste 0 -- -- 54
2021-01-14 10:00:00 3.8 2 Sudoeste 10 Sudoeste 0 -- -- 72
2021-01-14 09:00:00 1.9 3 Sudoeste 9 Sudoeste 0 -- -- 78
2021-01-14 08:00:00 0.8 0 Calma 9 Oeste 0 -- -- 82
2021-01-14 07:00:00 1 0 Calma 8 Oeste 0 -- -- 83
2021-01-14 06:00:00 0.8 2 Sudoeste 5 Sur 0 -- -- 85
2021-01-14 05:00:00 0.5 2 Sudoeste 5 Sudoeste 0 -- -- 88
2021-01-14 04:00:00 1.2 3 Sur 5 Sur 0 -- -- 85
2021-01-14 03:00:00 1.4 0 Calma 5 Sudoeste 0 -- -- 85
2021-01-14 02:00:00 2.1 2 Sudoeste 4 Sudoeste 0 -- -- 84
2021-01-14 01:00:00 2.3 0 Calma 6 Sudoeste 0 -- -- 83
2021-01-14 00:00:00 3.8 2 Sudoeste 12 Sudoeste 0 -- -- 76
2021-01-13 23:00:00 4 2 Sur 6 Sudoeste 0 -- -- 77
2021-01-13 22:00:00 4.1 0 Calma 5 Sudoeste 0 -- -- 76
2021-01-13 21:00:00 5.4 3 Sudoeste 5 Sur 0 -- -- 72
2021-01-13 20:00:00 6.3 0 Calma 4 Oeste 0 -- -- 66
2021-01-13 19:00:00 8.6 2 Oeste 6 Sudoeste 0 -- -- 53
2021-01-13 18:00:00 11.6 4 Sudoeste 12 Sur 0 -- -- 43
2021-01-13 17:00:00 14.4 5 Sudoeste 12 Sur 0 -- -- 41
2021-01-13 16:00:00 16.1 2 Sudoeste 8 Sudoeste 0 -- -- 31
2021-01-13 15:00:00 15.7 3 Sudoeste 9 Sur 0 -- -- 31
2021-01-13 14:00:00 15.3 2 Sudoeste 6 Sudoeste 0 -- -- 35
2021-01-13 13:00:00 13.6 2 Sudoeste 5 Sur 0 -- -- 37
2021-01-13 12:00:00 11.2 3 Sudoeste 6 Sudoeste 0 -- -- 45
2021-01-13 11:00:00 6.9 3 Sudoeste 7 Sudoeste 0 -- -- 58
2021-01-13 10:00:00 3.4 0 Calma 5 Sudoeste 0 -- -- 67
2021-01-13 09:00:00 1.1 3 Sudoeste 6 Oeste 0 -- -- 77
2021-01-13 08:00:00 1.4 2 Sudoeste 16 Sudoeste 0 -- -- 70
2021-01-13 07:00:00 0.2 2 Sudoeste 7 Sudoeste 0 -- -- 82
2021-01-13 06:00:00 0.7 3 Sudoeste 8 Sudoeste 0 -- -- 82
2021-01-13 05:00:00 0.8 0 Calma 6 Sudoeste 0 -- -- 83
2021-01-13 04:00:00 1.1 3 Sudoeste 6 Sudoeste 0 -- -- 84
2021-01-13 03:00:00 1.9 0 Calma 13 Sur 0 -- -- 79
2021-01-13 02:00:00 0.9 0 Calma 7 Oeste 0 -- -- 88
2021-01-13 01:00:00 2.8 0 Calma 5 Sudoeste 0 -- -- 80
2021-01-13 00:00:00 3.2 0 Calma 6 Sudoeste 0 -- -- 85
2021-01-12 23:00:00 3.6 2 Sudoeste 6 Sudoeste 0 -- -- 86
2021-01-12 22:00:00 4.9 3 Sudoeste 16 Sudoeste 0 -- -- 82
2021-01-12 21:00:00 5.6 6 Sur 11 Sudoeste 0 -- -- 73
2021-01-12 20:00:00 6.1 2 Sudoeste 3 Sudoeste 0 -- -- 84
2021-01-12 19:00:00 7.5 0 Calma 4 Oeste 0 -- -- 77
2021-01-12 18:00:00 10.6 0 Calma 11 Sudoeste 0 -- -- 64
2021-01-12 17:00:00 13.4 5 Sur 13 Sudoeste 0 -- -- 40
2021-01-12 16:00:00 13.4 6 Sudoeste 13 Sur 0 -- -- 39
2021-01-12 15:00:00 12.8 7 Sudoeste 15 Oeste 0 -- -- 41
2021-01-12 14:00:00 12 4 Sudoeste 9 Sudoeste 0 -- -- 45
2021-01-12 13:00:00 10.7 4 Sudoeste 9 Sudoeste 0 -- -- 52
2021-01-12 12:00:00 8.5 3 Sudoeste 7 Sudoeste 0 -- -- 59
2021-01-12 11:00:00 5.7 3 Sudoeste 7 Sur 0 -- -- 70
2021-01-12 10:00:00 2.7 3 Sur 8 Sur 0 -- -- 85
2021-01-12 09:00:00 1.5 2 Sudoeste 14 Sur 0 -- -- 84
2021-01-12 08:00:00 -0.6 2 Sudoeste 13 Sur 0 -- -- 91
2021-01-12 07:00:00 0.5 0 Calma 11 Sur 0 -- -- 87
2021-01-12 06:00:00 0.1 2 Sur 5 Sur 0 -- -- 91
2021-01-12 05:00:00 0.4 0 Calma 5 Sudoeste 0 -- -- 90
2021-01-12 04:00:00 1.2 3 Oeste 5 Sudoeste 0 -- -- 89
2021-01-12 03:00:00 1.6 4 Oeste 6 Oeste 0 -- -- 89
2021-01-12 02:00:00 1.9 0 Calma 10 Sudoeste 0 -- -- 87
2021-01-12 01:00:00 3.6 6 Sudoeste 12 Sudoeste 0 -- -- 77
2021-01-12 00:00:00 4 0 Calma 16 Sudoeste 0 -- -- 80
2021-01-11 23:00:00 4.9 5 Sudoeste 10 Sudoeste 0 -- -- 76
2021-01-11 22:00:00 5 4 Sur 8 Sur 0 -- -- 82
2021-01-11 21:00:00 5.9 2 Sur 5 Sudoeste 0 -- -- 84
2021-01-11 20:00:00 7.2 0 Calma 4 Sudoeste 0 -- -- 74
2021-01-11 19:00:00 7.9 4 Sudoeste 6 Sudoeste 0 -- -- 68
2021-01-11 18:00:00 8.6 3 Sudoeste 9 Sudoeste 0 -- -- 65
2021-01-11 17:00:00 9.2 3 Sudoeste 10 Sudoeste 0 -- -- 61
2021-01-11 16:00:00 10 3 Sudoeste 9 Sudoeste 0 -- -- 59
2021-01-11 15:00:00 10.9 4 Sudoeste 14 Sudoeste 0 -- -- 52
2021-01-11 14:00:00 9.9 4 Sudoeste 11 Sudoeste 0 -- -- 55
2021-01-11 13:00:00 8.3 5 Sur 14 Sur 0 -- -- 61
2021-01-11 12:00:00 7.1 5 Sudoeste 17 Sur 0 -- -- 65
2021-01-11 11:00:00 6.5 7 Sudoeste 14 Sudoeste 0 -- -- 65
2021-01-11 10:00:00 5.5 8 Sudoeste 19 Sur 0 -- -- 68
2021-01-11 09:00:00 4.6 4 Sudoeste 17 Sudoeste 0 -- -- 75
2021-01-11 08:00:00 4.5 10 Sudoeste 20 Sudoeste 0 -- -- 73
2021-01-11 07:00:00 1.9 2 Sudoeste 7 Sur 0 -- -- 90
2021-01-11 06:00:00 1.6 0 Calma 6 Sur 0 -- -- 90
2021-01-11 05:00:00 1.3 0 Calma 6 Oeste 0 -- -- 89
2021-01-11 04:00:00 1.8 4 Sur 9 Sudoeste 0 -- -- 86
2021-01-11 03:00:00 2.8 0 Calma 13 Sudoeste 0 -- -- 81
2021-01-11 02:00:00 5.2 7 Sudoeste 14 Sudoeste 0 -- -- 71
2021-01-11 01:00:00 4.4 3 Sudoeste 9 Sudoeste 0 -- -- 84
2021-01-11 00:00:00 5.6 6 Sudoeste 12 Sudoeste 0 -- -- 74
2021-01-10 23:00:00 5 0 Calma 10 Sudoeste 0 -- -- 82
2021-01-10 22:00:00 4.5 5 Sudoeste 10 Sudoeste 0 -- -- 85
2021-01-10 21:00:00 3.5 0 Calma 5 Sudoeste 0 -- -- 86
2021-01-10 20:00:00 4.7 3 Sur 8 Sur 0 -- -- 84
2021-01-10 19:00:00 5.1 0 Calma 9 Sudoeste 0 -- -- 82
2021-01-10 18:00:00 6.6 3 Sudoeste 11 Oeste 0 -- -- 76
2021-01-10 17:00:00 8.4 4 Sudoeste 12 Sur 0 -- -- 70
2021-01-10 16:00:00 9.5 4 Sudoeste 14 Sudoeste 0 -- -- 69
2021-01-10 15:00:00 8.5 8 Sudoeste 16 Sudoeste 0 -- -- 70
2021-01-10 14:00:00 7.9 3 Sudoeste 13 Sudoeste 0 -- -- 74
2021-01-10 13:00:00 6.9 3 Sudoeste 8 Sudoeste 0 -- -- 74
2021-01-10 12:00:00 6.9 4 Sur 11 Sur 0 -- -- 68
2021-01-10 11:00:00 6 5 Sur 13 Sur 0 -- -- 71
2021-01-10 10:00:00 5 6 Sudoeste 21 Sudoeste 0 -- -- 73
2021-01-10 09:00:00 4.7 11 Sudoeste 25 Sudoeste 0 -- -- 72
2021-01-10 08:00:00 5.1 6 Sudoeste 14 Sudoeste 0 -- -- 73
2021-01-10 07:00:00 4.5 4 Sudoeste 9 Sudoeste 0 -- -- 79
2021-01-10 06:00:00 4.1 2 Sudoeste 9 Sur 0 -- -- 80
2021-01-10 05:00:00 4.4 4 Sur 8 Sudoeste 0 -- -- 76
2021-01-10 04:00:00 4.1 4 Sudoeste 12 Sur 0 -- -- 76
2021-01-10 03:00:00 3.8 5 Sur 12 Sur 0 -- -- 76
2021-01-10 02:00:00 4.5 4 Sur 9 Sur 0 -- -- 73
2021-01-10 01:00:00 4.4 3 Sur 9 Sur 0 -- -- 75
2021-01-10 00:00:00 4.6 2 Sur 8 Sur 0 -- -- 74
2021-01-09 23:00:00 4.5 5 Sur 10 Sur 0 -- -- 76
2021-01-09 22:00:00 5.3 4 Sur 12 Sur 0 -- -- 76
2021-01-09 21:00:00 5.6 3 Sudoeste 9 Sudoeste 0 -- -- 78
2021-01-09 20:00:00 6.6 4 Sudoeste 11 Sudoeste 0 -- -- 89
2021-01-09 19:00:00 7 2 Sudoeste 12 Sudoeste 0 -- -- 90
2021-01-09 18:00:00 8.5 3 Sudoeste 14 Sudoeste 0 -- -- 88
2021-01-09 17:00:00 9.3 4 Sudoeste 15 Sudoeste 0 -- -- 84
2021-01-09 16:00:00 10.2 4 Sudoeste 14 Sudoeste 0 -- -- 82
2021-01-09 15:00:00 10.2 6 Sudoeste 20 Sudoeste 0 -- -- 82
2021-01-09 14:00:00 10.3 4 Sudoeste 14 Sudoeste 0 -- -- 83
2021-01-09 13:00:00 10.3 3 Sudoeste 10 Sudoeste 0 -- -- 84
2021-01-09 12:00:00 8.4 5 Sudoeste 10 Sudoeste 0 -- -- 89
2021-01-09 11:00:00 6.5 0 Calma 5 Oeste 0 -- -- 95
2021-01-09 10:00:00 5.7 2 Sudoeste 5 Sur 0 -- -- 95
2021-01-09 09:00:00 6 0 Calma 7 Sudoeste 0 -- -- 94
2021-01-09 08:00:00 5.8 2 Sur 10 Sudoeste 0 -- -- 93
2021-01-09 07:00:00 5.9 4 Sudoeste 12 Sur 0 -- -- 91
2021-01-09 06:00:00 5.7 5 Sur 10 Sur 0 -- -- 95
2021-01-09 05:00:00 5.8 2 Sudoeste 10 Sudoeste 0.2 -- -- 95
2021-01-09 04:00:00 5.8 4 Sudoeste 10 Sudoeste 0.2 -- -- 95
2021-01-09 03:00:00 6 4 Sudoeste 9 Sur 0.4 -- -- 95
2021-01-09 02:00:00 5.6 0 Calma 6 Sur 0.8 -- -- 95
2021-01-09 01:00:00 5.5 3 Sudoeste 11 Sudoeste 0.5 -- -- 95
2021-01-09 00:00:00 5.5 7 Sudoeste 13 Sudoeste 0.3 -- -- 95
2021-01-08 23:00:00 5.7 5 Sudoeste 16 Sudoeste 0.3 -- -- 94
2021-01-08 22:00:00 5.9 9 Sudoeste 18 Sudoeste 0 -- -- 91
2021-01-08 21:00:00 5.4 6 Sudoeste 18 Sudoeste 0.3 -- -- 94
2021-01-08 20:00:00 5.8 10 Sudoeste 26 Oeste 0 -- -- 91
2021-01-08 19:00:00 5.5 14 Sudoeste 25 Sudoeste 0.1 -- -- 94
2021-01-08 18:00:00 5.4 3 Sudoeste 14 Sudoeste 0 -- -- 95
2021-01-08 17:00:00 5.2 7 Sudoeste 13 Sudoeste 0.2 -- -- 95
2021-01-08 16:00:00 5.7 4 Sudoeste 13 Sur 0.5 -- -- 94
2021-01-08 15:00:00 5.5 5 Sudoeste 12 Sur 0.3 -- -- 95
2021-01-08 14:00:00 5.6 5 Sudoeste 14 Sur 0.1 -- -- 94
2021-01-08 13:00:00 5.4 4 Sudoeste 16 Sudoeste 0.7 -- -- 94
2021-01-08 12:00:00 5.1 6 Sur 17 Sur 0.9 -- -- 94
2021-01-08 11:00:00 4.8 6 Sudoeste 16 Sudoeste 0.9 -- -- 94
2021-01-08 10:00:00 4.5 5 Sur 18 Sudoeste 1 -- -- 94
2021-01-08 09:00:00 3.9 6 Sudoeste 14 Sur 0 -- -- 93
2021-01-08 08:00:00 3.8 7 Sudoeste 19 Sudoeste 0 -- -- 92
2021-01-08 07:00:00 3.7 5 Sudoeste 17 Sudoeste 0 -- -- 91
2021-01-08 06:00:00 3.6 9 Sudoeste 24 Sur 0 -- -- 88
2021-01-08 05:00:00 3.4 6 Sudoeste 20 Sudoeste 0.4 -- -- 91
2021-01-08 04:00:00 3.4 9 Sudoeste 26 Sur 0.2 -- -- 90
2021-01-08 03:00:00 3.6 10 Sudoeste 28 Sur 0.2 -- -- 90
2021-01-08 02:00:00 3.3 11 Sudoeste 28 Sudoeste 0.6 -- -- 89
2021-01-08 01:00:00 3.8 14 Sudoeste 25 Sudoeste 2 -- -- 89
2021-01-08 00:00:00 3.9 7 Sudoeste 21 Sudoeste 0.6 -- -- 92
2021-01-07 23:00:00 4.1 5 Sudoeste 12 Sur 0 -- -- 90
2021-01-07 22:00:00 4.4 4 Sur 17 Sudoeste 0 -- -- 88
2021-01-07 21:00:00 4.6 5 Sudoeste 14 Sur 0 -- -- 87
2021-01-07 20:00:00 4.3 7 Sur 19 Sudoeste 0 -- -- 89
2021-01-07 19:00:00 4.5 9 Sudoeste 20 Sudoeste 0.2 -- -- 92
2021-01-07 18:00:00 4.2 7 Sur 16 Sur 0 -- -- 95
2021-01-07 17:00:00 4.7 8 Sur 15 Sudoeste 0.4 -- -- 95
2021-01-07 16:00:00 5.1 5 Sudoeste 15 Sudoeste 0.2 -- -- 94
2021-01-07 15:00:00 5.1 5 Sur 14 Sudoeste 0.2 -- -- 93
2021-01-07 14:00:00 4.9 2 Sudoeste 13 Sudoeste 0.2 -- -- 94
2021-01-07 13:00:00 4.4 3 Sudoeste 18 Sudoeste 0.2 -- -- 93
2021-01-07 12:00:00 3.9 5 Sur 18 Sudoeste 0.2 -- -- 92
2021-01-07 11:00:00 3.4 6 Sur 19 Sur 0.2 -- -- 93
2021-01-07 10:00:00 3 6 Sudoeste 16 Sudoeste 0.4 -- -- 93
2021-01-07 09:00:00 2.9 5 Sudoeste 17 Sudoeste 0.8 -- -- 92
2021-01-07 08:00:00 3.1 6 Sur 15 Sudoeste 1.3 -- -- 92
2021-01-07 07:00:00 3.8 6 Sudoeste 15 Sudoeste 0.6 -- -- 91
2021-01-07 06:00:00 4.3 3 Sur 18 Sudoeste 0.8 -- -- 92
2021-01-07 05:00:00 4.7 10 Sudoeste 23 Sudoeste 0.2 -- -- 91
2021-01-07 04:00:00 4.9 9 Sudoeste 18 Sudoeste 0.8 -- -- 91
2021-01-07 03:00:00 5.1 9 Sudoeste 19 Sudoeste 0.2 -- -- 89
2021-01-07 02:00:00 5 8 Sudoeste 23 Sudoeste 0.2 -- -- 88
2021-01-07 01:00:00 5.6 11 Sudoeste 23 Sudoeste 0 -- -- 88
2021-01-07 00:00:00 5.9 5 Sudoeste 19 Sudoeste 0.4 -- -- 91
2021-01-06 23:00:00 6.2 5 Sudoeste 12 Sudoeste 0.7 -- -- 92
2021-01-06 22:00:00 6.4 2 Sur 15 Sudoeste 0.8 -- -- 91
2021-01-06 21:00:00 7.3 3 Sudoeste 13 Sudoeste 0 -- -- 77
2021-01-06 20:00:00 7.7 4 Sudoeste 12 Sudoeste 0 -- -- 69
2021-01-06 19:00:00 7.8 0 Calma 7 Sudoeste 0 -- -- 60
2021-01-06 18:00:00 8.6 0 Calma 15 Sudoeste 0 -- -- 58
2021-01-06 17:00:00 9 5 Sudoeste 17 Sudoeste 0 -- -- 55
2021-01-06 16:00:00 9.7 7 Sudoeste 18 Sudoeste 0 -- -- 54
2021-01-06 15:00:00 9.6 5 Sudoeste 17 Sudoeste 0 -- -- 55
2021-01-06 14:00:00 9.5 8 Sudoeste 20 Sudoeste 0 -- -- 56
2021-01-06 13:00:00 9.1 6 Sudoeste 14 Sudoeste 0 -- -- 58
2021-01-06 12:00:00 8.3 4 Sudoeste 10 Sudoeste 0 -- -- 55
2021-01-06 11:00:00 6 0 Calma 6 Sudoeste 0 -- -- 59
2021-01-06 10:00:00 3.8 2 Sudoeste 14 Sur 0 -- -- 60
2021-01-06 09:00:00 2.6 3 Sudoeste 7 Sudoeste 0 -- -- 64
2021-01-06 08:00:00 2.6 0 Calma 9 Sur 0 -- -- 60
2021-01-06 07:00:00 2.6 7 Sudoeste 13 Sudoeste 0 -- -- 60
2021-01-06 06:00:00 3.2 4 Sur 14 Sur 0 -- -- 58
2021-01-06 05:00:00 2 0 Calma 9 Sur 0 -- -- 60
2021-01-06 04:00:00 3.3 0 Calma 13 Sudoeste 0 -- -- 55
2021-01-06 03:00:00 4.3 5 Sur 15 Sudoeste 0 -- -- 54
2021-01-06 02:00:00 5.3 4 Sudoeste 10 Sur 0 -- -- 53
2021-01-06 01:00:00 5.3 5 Sur 10 Sur 0 -- -- 53
2021-01-06 00:00:00 5.9 3 Sur 8 Sudoeste 0 -- -- 52
2021-01-05 23:00:00 5.9 3 Sur 8 Sudoeste 0 -- -- 52
2021-01-05 22:00:00 -- -- -- -- -- -- -- -- --
2021-01-05 21:00:00 6.1 0 Calma 4 Sudoeste 0 -- -- 54
2021-01-05 20:00:00 6.7 0 Calma 4 Sur 0 -- -- 52
2021-01-05 19:00:00 7.5 0 Calma 6 Sudoeste 0 -- -- 48
2021-01-05 18:00:00 8.2 2 Sudoeste 10 Oeste 0 -- -- 45
2021-01-05 17:00:00 9.2 3 Sudoeste 15 Sudoeste 0 -- -- 43
2021-01-05 16:00:00 10.2 4 Sudoeste 10 Sudoeste 0 -- -- 43
2021-01-05 15:00:00 10.6 3 Sudoeste 13 Sudoeste 0 -- -- 42
2021-01-05 14:00:00 10.3 5 Sudoeste 14 Sudoeste 0 -- -- 45
2021-01-05 13:00:00 10.8 3 Sudoeste 11 Sudoeste 0 -- -- 46
2021-01-05 12:00:00 8.1 4 Sudoeste 11 Sudoeste 0 -- -- 52
2021-01-05 11:00:00 5.6 0 Calma 7 Sur 0 -- -- 65
2021-01-05 10:00:00 3.6 3 Sudoeste 11 Oeste 0 -- -- 70
2021-01-05 09:00:00 2 3 Sur 15 Sudoeste 0 -- -- 72
2021-01-05 08:00:00 1.2 3 Sudoeste 9 Oeste 0 -- -- 75
2021-01-05 07:00:00 2 5 Sudoeste 21 Sudoeste 0 -- -- 74
2021-01-05 06:00:00 3.4 13 Sudoeste 21 Sudoeste 0 -- -- 72
2021-01-05 05:00:00 3.2 7 Sudoeste 16 Sur 0 -- -- 73
2021-01-05 04:00:00 2.1 4 Sudoeste 7 Sur 0 -- -- 73
2021-01-05 03:00:00 2.2 2 Sudoeste 6 Sur 0 -- -- 72
2021-01-05 02:00:00 2.8 0 Calma 9 Sudoeste 0 -- -- 67
2021-01-05 01:00:00 3.4 2 Sudoeste 7 Sur 0 -- -- 64
2021-01-05 00:00:00 4.7 2 Sudoeste 6 Sudoeste 0 -- -- 61
2021-01-04 23:00:00 5.1 0 Calma 17 Sudoeste 0 -- -- 57
2021-01-04 22:00:00 8 10 Sudoeste 17 Sudoeste 0 -- -- 51
2021-01-04 21:00:00 8.4 5 Sudoeste 13 Sudoeste 0 -- -- 48
2021-01-04 20:00:00 7.6 0 Calma 9 Sudoeste 0 -- -- 46
2021-01-04 19:00:00 9.4 4 Sudoeste 19 Sudoeste 0 -- -- 42
2021-01-04 18:00:00 10.3 9 Sudoeste 21 Sudoeste 0 -- -- 40
2021-01-04 17:00:00 11.4 9 Sudoeste 24 Sudoeste 0 -- -- 39
2021-01-04 16:00:00 12.2 10 Sudoeste 27 Sudoeste 0 -- -- 39
2021-01-04 15:00:00 12.4 4 Sudoeste 18 Sur 0 -- -- 41
2021-01-04 14:00:00 12.4 5 Sur 14 Sur 0 -- -- 42
2021-01-04 13:00:00 10.7 6 Sur 14 Sudoeste 0 -- -- 46
2021-01-04 12:00:00 9.2 5 Sur 9 Sur 0 -- -- 49
2021-01-04 11:00:00 6.5 4 Sudoeste 12 Sudoeste 0 -- -- 56
2021-01-04 10:00:00 2.6 8 Sudoeste 17 Sudoeste 0 -- -- 60
2021-01-04 09:00:00 3.5 10 Sudoeste 16 Sudoeste 0 -- -- 61
2021-01-04 08:00:00 2.8 4 Sudoeste 12 Sudoeste 0 -- -- 62
2021-01-04 07:00:00 1.3 4 Sur 10 Sur 0 -- -- 62
2021-01-04 06:00:00 -0.5 2 Sudoeste 9 Sudoeste 0 -- -- 59
2021-01-04 05:00:00 0.4 3 Sudoeste 9 Sur 0 -- -- 55
2021-01-04 04:00:00 0.7 3 Sudoeste 15 Sudoeste 0 -- -- 54
2021-01-04 03:00:00 1.8 3 Sudoeste 11 Sudoeste 0 -- -- 53
2021-01-04 02:00:00 -0.1 2 Sudoeste 10 Sudoeste 0 -- -- 54
2021-01-04 01:00:00 2.3 4 Sudoeste 14 Sudoeste 0 -- -- 48
2021-01-04 00:00:00 2.5 4 Sudoeste 15 Sudoeste 0 -- -- 48
2021-01-03 23:00:00 3.4 8 Sudoeste 16 Sudoeste 0 -- -- 47
2021-01-03 22:00:00 2.5 4 Sudoeste 10 Sur 0 -- -- 49
2021-01-03 21:00:00 2.3 2 Sudoeste 5 Sur 0 -- -- 49
2021-01-03 20:00:00 4.1 0 Calma 10 Sudoeste 0 -- -- 45
2021-01-03 19:00:00 6.1 0 Calma 10 Sur 0 -- -- 41
2021-01-03 18:00:00 9.3 3 Sudoeste 17 Sudoeste 0 -- -- 37
2021-01-03 17:00:00 10.9 6 Sudoeste 18 Sudoeste 0 -- -- 36
2021-01-03 16:00:00 11 10 Sudoeste 23 Sudoeste 0 -- -- 37
2021-01-03 15:00:00 11 13 Sudoeste 28 Sudoeste 0 -- -- 37
2021-01-03 14:00:00 10.4 15 Sudoeste 31 Sudoeste 0 -- -- 39
2021-01-03 13:00:00 9.8 13 Sudoeste 29 Sudoeste 0 -- -- 41
2021-01-03 12:00:00 9.2 9 Sudoeste 26 Sudoeste 0 -- -- 41
2021-01-03 11:00:00 7.7 8 Sudoeste 29 Oeste 0 -- -- 45
2021-01-03 10:00:00 5.9 5 Sudoeste 23 Sudoeste 0 -- -- 47
2021-01-03 09:00:00 4.4 4 Sudoeste 26 Sur 0 -- -- 48
2021-01-03 08:00:00 4.2 7 Sudoeste 21 Oeste 0 -- -- 49
2021-01-03 07:00:00 3.5 3 Sudoeste 19 Sudoeste 0 -- -- 49
2021-01-03 06:00:00 4.3 6 Sudoeste 19 Oeste 0 -- -- 47
2021-01-03 05:00:00 4.6 4 Sudoeste 19 Sur 0 -- -- 47
2021-01-03 04:00:00 4.2 5 Sudoeste 19 Sudoeste 0 -- -- 49
2021-01-03 03:00:00 3.7 7 Sudoeste 14 Sudoeste 0 -- -- 51
2021-01-03 02:00:00 3.3 3 Sudoeste 10 Sudoeste 0 -- -- 52
2021-01-03 01:00:00 4.2 3 Sudoeste 17 Sudoeste 0 -- -- 51
2021-01-03 00:00:00 4 0 Calma 17 Oeste 0 -- -- 53
2021-01-02 23:00:00 5.2 5 Sudoeste 19 Sudoeste 0 -- -- 51
2021-01-02 22:00:00 5.6 11 Sudoeste 30 Sudoeste 0 -- -- 48
2021-01-02 21:00:00 5.9 8 Sudoeste 24 Sudoeste 0 -- -- 47
2021-01-02 20:00:00 6.2 14 Sudoeste 24 Sudoeste 0 -- -- 46
2021-01-02 19:00:00 7.2 7 Sudoeste 20 Sur 0 -- -- 42
2021-01-02 18:00:00 7.9 8 Sudoeste 25 Sudoeste 0 -- -- 40
2021-01-02 17:00:00 8.6 13 Sudoeste 34 Sudoeste 0 -- -- 39
2021-01-02 16:00:00 9.5 15 Sudoeste 39 Sudoeste 0 -- -- 36
2021-01-02 15:00:00 9.9 22 Sudoeste 38 Sudoeste 0 -- -- 35
2021-01-02 14:00:00 9.6 21 Sudoeste 38 Sur 0 -- -- 34